sensor_id;sensor_type;location;lat;lon;timestamp;P1;P2;P0
64114;PMS5003;62188;35.640;139.748;2023-03-04T00:01:21;32;31;
64114;PMS5003;62188;35.640;139.748;2023-03-04T00:03:47;36;34;
64114;PMS5003;62188;35.640;139.748;2023-03-04T00:06:12;25;25;
64114;PMS5003;62188;35.640;139.748;2023-03-04T00:08:38;32;30;
64114;PMS5003;62188;35.640;139.748;2023-03-04T00:11:03;33;30;
64114;PMS5003;62188;35.640;139.748;2023-03-04T00:13:28;34;30;
64114;PMS5003;62188;35.640;139.748;2023-03-04T00:15:53;31;31;
64114;PMS5003;62188;35.640;139.748;2023-03-04T00:18:19;30;28;
64114;PMS5003;62188;35.640;139.748;2023-03-04T00:20:44;27;23;
64114;PMS5003;62188;35.640;139.748;2023-03-04T00:23:10;23;23;
64114;PMS5003;62188;35.640;139.748;2023-03-04T00:25:35;42;39;
64114;PMS5003;62188;35.640;139.748;2023-03-04T00:28:01;33;33;
64114;PMS5003;62188;35.640;139.748;2023-03-04T00:30:26;44;40;
64114;PMS5003;62188;35.640;139.748;2023-03-04T00:32:52;43;41;
64114;PMS5003;62188;35.640;139.748;2023-03-04T00:35:17;33;33;
64114;PMS5003;62188;35.640;139.748;2023-03-04T00:37:42;27;25;
64114;PMS5003;62188;35.640;139.748;2023-03-04T00:40:08;36;33;
64114;PMS5003;62188;35.640;139.748;2023-03-04T00:42:33;34;32;
64114;PMS5003;62188;35.640;139.748;2023-03-04T00:44:59;38;36;
64114;PMS5003;62188;35.640;139.748;2023-03-04T00:47:25;38;36;
64114;PMS5003;62188;35.640;139.748;2023-03-04T00:49:50;38;32;
64114;PMS5003;62188;35.640;139.748;2023-03-04T00:52:16;47;42;
64114;PMS5003;62188;35.640;139.748;2023-03-04T00:54:41;35;34;
64114;PMS5003;62188;35.640;139.748;2023-03-04T00:57:07;40;37;
64114;PMS5003;62188;35.640;139.748;2023-03-04T00:59:33;25;25;
64114;PMS5003;62188;35.640;139.748;2023-03-04T01:01:58;39;38;
64114;PMS5003;62188;35.640;139.748;2023-03-04T01:04:23;41;40;
64114;PMS5003;62188;35.640;139.748;2023-03-04T01:06:49;29;27;
64114;PMS5003;62188;35.640;139.748;2023-03-04T01:09:15;34;33;
64114;PMS5003;62188;35.640;139.748;2023-03-04T01:11:40;36;36;
64114;PMS5003;62188;35.640;139.748;2023-03-04T01:14:06;31;31;
64114;PMS5003;62188;35.640;139.748;2023-03-04T01:16:31;30;29;
64114;PMS5003;62188;35.640;139.748;2023-03-04T01:18:56;34;32;
64114;PMS5003;62188;35.640;139.748;2023-03-04T01:21:22;44;41;
64114;PMS5003;62188;35.640;139.748;2023-03-04T01:23:47;31;29;
64114;PMS5003;62188;35.640;139.748;2023-03-04T01:26:13;34;32;
64114;PMS5003;62188;35.640;139.748;2023-03-04T01:28:39;27;27;
64114;PMS5003;62188;35.640;139.748;2023-03-04T01:31:04;23;22;
64114;PMS5003;62188;35.640;139.748;2023-03-04T01:33:29;23;22;
64114;PMS5003;62188;35.640;139.748;2023-03-04T01:35:54;27;26;
64114;PMS5003;62188;35.640;139.748;2023-03-04T01:38:20;21;19;
64114;PMS5003;62188;35.640;139.748;2023-03-04T01:40:45;33;32;
64114;PMS5003;62188;35.640;139.748;2023-03-04T01:43:14;33;33;
64114;PMS5003;62188;35.640;139.748;2023-03-04T01:45:36;22;18;
64114;PMS5003;62188;35.640;139.748;2023-03-04T01:48:02;21;20;
64114;PMS5003;62188;35.640;139.748;2023-03-04T01:50:28;32;30;
64114;PMS5003;62188;35.640;139.748;2023-03-04T01:52:52;23;22;
64114;PMS5003;62188;35.640;139.748;2023-03-04T01:55:18;26;25;
64114;PMS5003;62188;35.640;139.748;2023-03-04T01:57:43;29;28;
64114;PMS5003;62188;35.640;139.748;2023-03-04T02:00:13;21;18;
64114;PMS5003;62188;35.640;139.748;2023-03-04T02:02:34;34;33;
64114;PMS5003;62188;35.640;139.748;2023-03-04T02:05:00;27;27;
64114;PMS5003;62188;35.640;139.748;2023-03-04T02:07:25;24;24;
64114;PMS5003;62188;35.640;139.748;2023-03-04T02:09:51;29;27;
64114;PMS5003;62188;35.640;139.748;2023-03-04T02:12:16;25;22;
64114;PMS5003;62188;35.640;139.748;2023-03-04T02:14:42;32;30;
64114;PMS5003;62188;35.640;139.748;2023-03-04T02:17:09;23;23;
64114;PMS5003;62188;35.640;139.748;2023-03-04T02:19:36;27;27;
64114;PMS5003;62188;35.640;139.748;2023-03-04T02:21:59;17;17;
64114;PMS5003;62188;35.640;139.748;2023-03-04T02:24:25;26;24;
64114;PMS5003;62188;35.640;139.748;2023-03-04T02:26:50;35;32;
64114;PMS5003;62188;35.640;139.748;2023-03-04T02:29:16;28;27;
64114;PMS5003;62188;35.640;139.748;2023-03-04T02:31:42;23;20;
64114;PMS5003;62188;35.640;139.748;2023-03-04T02:34:09;32;29;
64114;PMS5003;62188;35.640;139.748;2023-03-04T02:36:32;31;28;
64114;PMS5003;62188;35.640;139.748;2023-03-04T02:39:00;36;34;
64114;PMS5003;62188;35.640;139.748;2023-03-04T02:41:23;40;38;
64114;PMS5003;62188;35.640;139.748;2023-03-04T02:43:49;22;21;
64114;PMS5003;62188;35.640;139.748;2023-03-04T02:46:14;26;25;
64114;PMS5003;62188;35.640;139.748;2023-03-04T02:48:39;23;23;
64114;PMS5003;62188;35.640;139.748;2023-03-04T02:51:05;30;29;
64114;PMS5003;62188;35.640;139.748;2023-03-04T02:53:30;29;29;
64114;PMS5003;62188;35.640;139.748;2023-03-04T02:55:56;29;28;
64114;PMS5003;62188;35.640;139.748;2023-03-04T02:58:21;21;21;
64114;PMS5003;62188;35.640;139.748;2023-03-04T03:00:47;29;25;
64114;PMS5003;62188;35.640;139.748;2023-03-04T03:03:12;32;30;
64114;PMS5003;62188;35.640;139.748;2023-03-04T03:05:37;31;29;
64114;PMS5003;62188;35.640;139.748;2023-03-04T03:08:03;23;22;
64114;PMS5003;62188;35.640;139.748;2023-03-04T03:10:28;32;29;
64114;PMS5003;62188;35.640;139.748;2023-03-04T03:12:54;24;22;
64114;PMS5003;62188;35.640;139.748;2023-03-04T03:15:19;28;27;
64114;PMS5003;62188;35.640;139.748;2023-03-04T03:17:44;32;29;
64114;PMS5003;62188;35.640;139.748;2023-03-04T03:20:11;22;20;
64114;PMS5003;62188;35.640;139.748;2023-03-04T03:22:36;37;33;
64114;PMS5003;62188;35.640;139.748;2023-03-04T03:25:02;18;17;
64114;PMS5003;62188;35.640;139.748;2023-03-04T03:27:27;25;24;
64114;PMS5003;62188;35.640;139.748;2023-03-04T03:29:53;25;24;
64114;PMS5003;62188;35.640;139.748;2023-03-04T03:32:17;34;33;
64114;PMS5003;62188;35.640;139.748;2023-03-04T03:34:43;19;18;
64114;PMS5003;62188;35.640;139.748;2023-03-04T03:37:08;16;16;
64114;PMS5003;62188;35.640;139.748;2023-03-04T03:39:34;25;25;
64114;PMS5003;62188;35.640;139.748;2023-03-04T03:41:59;25;22;
64114;PMS5003;62188;35.640;139.748;2023-03-04T03:44:26;29;26;
64114;PMS5003;62188;35.640;139.748;2023-03-04T03:46:51;25;22;
64114;PMS5003;62188;35.640;139.748;2023-03-04T03:49:16;31;30;
64114;PMS5003;62188;35.640;139.748;2023-03-04T03:51:42;23;22;
64114;PMS5003;62188;35.640;139.748;2023-03-04T03:54:08;20;19;
64114;PMS5003;62188;35.640;139.748;2023-03-04T03:56:33;23;21;
64114;PMS5003;62188;35.640;139.748;2023-03-04T03:58:58;26;23;
64114;PMS5003;62188;35.640;139.748;2023-03-04T04:01:23;19;17;
64114;PMS5003;62188;35.640;139.748;2023-03-04T04:03:49;21;19;
64114;PMS5003;62188;35.640;139.748;2023-03-04T04:06:14;22;21;
64114;PMS5003;62188;35.640;139.748;2023-03-04T04:08:40;24;21;
64114;PMS5003;62188;35.640;139.748;2023-03-04T04:11:07;24;23;
64114;PMS5003;62188;35.640;139.748;2023-03-04T04:13:30;21;18;
64114;PMS5003;62188;35.640;139.748;2023-03-04T04:15:56;18;17;
64114;PMS5003;62188;35.640;139.748;2023-03-04T04:18:21;21;19;
64114;PMS5003;62188;35.640;139.748;2023-03-04T04:20:47;22;20;
64114;PMS5003;62188;35.640;139.748;2023-03-04T04:23:12;19;18;
64114;PMS5003;62188;35.640;139.748;2023-03-04T04:25:37;17;14;
64114;PMS5003;62188;35.640;139.748;2023-03-04T04:28:03;15;15;
64114;PMS5003;62188;35.640;139.748;2023-03-04T04:30:29;16;15;
64114;PMS5003;62188;35.640;139.748;2023-03-04T04:32:54;19;18;
64114;PMS5003;62188;35.640;139.748;2023-03-04T04:35:19;14;14;
64114;PMS5003;62188;35.640;139.748;2023-03-04T04:37:45;30;28;
64114;PMS5003;62188;35.640;139.748;2023-03-04T04:40:11;31;31;
64114;PMS5003;62188;35.640;139.748;2023-03-04T04:42:36;25;23;
64114;PMS5003;62188;35.640;139.748;2023-03-04T04:45:02;31;30;
64114;PMS5003;62188;35.640;139.748;2023-03-04T04:47:27;36;34;
64114;PMS5003;62188;35.640;139.748;2023-03-04T04:49:52;43;39;
64114;PMS5003;62188;35.640;139.748;2023-03-04T04:52:18;33;32;
64114;PMS5003;62188;35.640;139.748;2023-03-04T04:54:43;34;32;
64114;PMS5003;62188;35.640;139.748;2023-03-04T04:57:09;37;37;
64114;PMS5003;62188;35.640;139.748;2023-03-04T04:59:34;41;38;
64114;PMS5003;62188;35.640;139.748;2023-03-04T05:02:00;47;44;
64114;PMS5003;62188;35.640;139.748;2023-03-04T05:04:26;40;37;
64114;PMS5003;62188;35.640;139.748;2023-03-04T05:06:51;39;36;
64114;PMS5003;62188;35.640;139.748;2023-03-04T05:09:17;40;39;
64114;PMS5003;62188;35.640;139.748;2023-03-04T05:11:43;35;33;
64114;PMS5003;62188;35.640;139.748;2023-03-04T05:14:07;34;33;
64114;PMS5003;62188;35.640;139.748;2023-03-04T05:16:33;38;36;
64114;PMS5003;62188;35.640;139.748;2023-03-04T05:18:58;36;33;
64114;PMS5003;62188;35.640;139.748;2023-03-04T05:21:24;36;34;
64114;PMS5003;62188;35.640;139.748;2023-03-04T05:23:49;41;37;
64114;PMS5003;62188;35.640;139.748;2023-03-04T05:26:15;36;35;
64114;PMS5003;62188;35.640;139.748;2023-03-04T05:28:40;35;35;
64114;PMS5003;62188;35.640;139.748;2023-03-04T05:31:05;33;32;
64114;PMS5003;62188;35.640;139.748;2023-03-04T05:33:30;33;30;
64114;PMS5003;62188;35.640;139.748;2023-03-04T05:35:56;34;32;
64114;PMS5003;62188;35.640;139.748;2023-03-04T05:38:22;30;27;
64114;PMS5003;62188;35.640;139.748;2023-03-04T05:40:47;31;29;
64114;PMS5003;62188;35.640;139.748;2023-03-04T05:43:12;32;29;
64114;PMS5003;62188;35.640;139.748;2023-03-04T05:45:38;27;26;
64114;PMS5003;62188;35.640;139.748;2023-03-04T05:48:02;31;27;
64114;PMS5003;62188;35.640;139.748;2023-03-04T05:50:28;31;28;
64114;PMS5003;62188;35.640;139.748;2023-03-04T05:52:54;28;27;
64114;PMS5003;62188;35.640;139.748;2023-03-04T05:55:19;28;26;
64114;PMS5003;62188;35.640;139.748;2023-03-04T05:57:44;28;27;
64114;PMS5003;62188;35.640;139.748;2023-03-04T06:00:10;26;26;
64114;PMS5003;62188;35.640;139.748;2023-03-04T06:02:35;30;28;
64114;PMS5003;62188;35.640;139.748;2023-03-04T06:05:00;29;29;
64114;PMS5003;62188;35.640;139.748;2023-03-04T06:07:25;27;26;
64114;PMS5003;62188;35.640;139.748;2023-03-04T06:09:51;30;29;
64114;PMS5003;62188;35.640;139.748;2023-03-04T06:12:17;29;28;
64114;PMS5003;62188;35.640;139.748;2023-03-04T06:14:42;24;23;
64114;PMS5003;62188;35.640;139.748;2023-03-04T06:17:07;28;27;
64114;PMS5003;62188;35.640;139.748;2023-03-04T06:19:32;25;24;
64114;PMS5003;62188;35.640;139.748;2023-03-04T06:21:58;25;24;
64114;PMS5003;62188;35.640;139.748;2023-03-04T06:24:23;30;28;
64114;PMS5003;62188;35.640;139.748;2023-03-04T06:26:48;28;25;
64114;PMS5003;62188;35.640;139.748;2023-03-04T06:29:14;25;25;
64114;PMS5003;62188;35.640;139.748;2023-03-04T06:31:39;24;22;
64114;PMS5003;62188;35.640;139.748;2023-03-04T06:34:04;26;25;
64114;PMS5003;62188;35.640;139.748;2023-03-04T06:36:29;26;26;
64114;PMS5003;62188;35.640;139.748;2023-03-04T06:38:55;21;21;
64114;PMS5003;62188;35.640;139.748;2023-03-04T06:41:19;26;25;
64114;PMS5003;62188;35.640;139.748;2023-03-04T06:43:45;24;22;
64114;PMS5003;62188;35.640;139.748;2023-03-04T06:46:10;33;29;
64114;PMS5003;62188;35.640;139.748;2023-03-04T06:48:35;25;23;
64114;PMS5003;62188;35.640;139.748;2023-03-04T06:51:04;27;26;
64114;PMS5003;62188;35.640;139.748;2023-03-04T06:53:26;33;31;
64114;PMS5003;62188;35.640;139.748;2023-03-04T06:55:51;33;30;
64114;PMS5003;62188;35.640;139.748;2023-03-04T06:58:16;28;25;
64114;PMS5003;62188;35.640;139.748;2023-03-04T07:00:42;27;26;
64114;PMS5003;62188;35.640;139.748;2023-03-04T07:03:07;26;23;
64114;PMS5003;62188;35.640;139.748;2023-03-04T07:05:33;23;23;
64114;PMS5003;62188;35.640;139.748;2023-03-04T07:07:58;29;26;
64114;PMS5003;62188;35.640;139.748;2023-03-04T07:10:23;19;19;
64114;PMS5003;62188;35.640;139.748;2023-03-04T07:12:49;22;21;
64114;PMS5003;62188;35.640;139.748;2023-03-04T07:15:14;22;21;
64114;PMS5003;62188;35.640;139.748;2023-03-04T07:17:39;24;23;
64114;PMS5003;62188;35.640;139.748;2023-03-04T07:20:05;24;20;
64114;PMS5003;62188;35.640;139.748;2023-03-04T07:22:30;25;23;
64114;PMS5003;62188;35.640;139.748;2023-03-04T07:24:55;25;24;
64114;PMS5003;62188;35.640;139.748;2023-03-04T07:27:21;25;23;
64114;PMS5003;62188;35.640;139.748;2023-03-04T07:29:45;24;22;
64114;PMS5003;62188;35.640;139.748;2023-03-04T07:32:11;25;23;
64114;PMS5003;62188;35.640;139.748;2023-03-04T07:34:36;28;27;
64114;PMS5003;62188;35.640;139.748;2023-03-04T07:37:02;27;26;
64114;PMS5003;62188;35.640;139.748;2023-03-04T07:39:27;27;26;
64114;PMS5003;62188;35.640;139.748;2023-03-04T07:41:52;25;23;
64114;PMS5003;62188;35.640;139.748;2023-03-04T07:44:18;23;23;
64114;PMS5003;62188;35.640;139.748;2023-03-04T07:46:43;28;26;
64114;PMS5003;62188;35.640;139.748;2023-03-04T07:49:10;30;28;
64114;PMS5003;62188;35.640;139.748;2023-03-04T07:51:34;26;24;
64114;PMS5003;62188;35.640;139.748;2023-03-04T07:53:59;23;23;
64114;PMS5003;62188;35.640;139.748;2023-03-04T07:56:25;23;22;
64114;PMS5003;62188;35.640;139.748;2023-03-04T07:58:50;24;23;
64114;PMS5003;62188;35.640;139.748;2023-03-04T08:01:16;25;25;
64114;PMS5003;62188;35.640;139.748;2023-03-04T08:03:41;26;25;
64114;PMS5003;62188;35.640;139.748;2023-03-04T08:06:07;22;22;
64114;PMS5003;62188;35.640;139.748;2023-03-04T08:08:32;31;30;
64114;PMS5003;62188;35.640;139.748;2023-03-04T08:10:57;28;26;
64114;PMS5003;62188;35.640;139.748;2023-03-04T08:13:23;27;24;
64114;PMS5003;62188;35.640;139.748;2023-03-04T08:15:49;31;28;
64114;PMS5003;62188;35.640;139.748;2023-03-04T08:18:14;26;25;
64114;PMS5003;62188;35.640;139.748;2023-03-04T08:20:40;25;23;
64114;PMS5003;62188;35.640;139.748;2023-03-04T08:23:05;24;23;
64114;PMS5003;62188;35.640;139.748;2023-03-04T08:25:31;27;24;
64114;PMS5003;62188;35.640;139.748;2023-03-04T08:27:57;23;22;
64114;PMS5003;62188;35.640;139.748;2023-03-04T08:30:22;24;24;
64114;PMS5003;62188;35.640;139.748;2023-03-04T08:32:47;27;26;
64114;PMS5003;62188;35.640;139.748;2023-03-04T08:35:12;26;26;
64114;PMS5003;62188;35.640;139.748;2023-03-04T08:37:38;25;23;
64114;PMS5003;62188;35.640;139.748;2023-03-04T08:40:03;26;25;
64114;PMS5003;62188;35.640;139.748;2023-03-04T08:42:29;28;25;
64114;PMS5003;62188;35.640;139.748;2023-03-04T08:44:54;29;27;
64114;PMS5003;62188;35.640;139.748;2023-03-04T08:47:19;27;24;
64114;PMS5003;62188;35.640;139.748;2023-03-04T08:49:44;27;26;
64114;PMS5003;62188;35.640;139.748;2023-03-04T08:52:09;31;29;
64114;PMS5003;62188;35.640;139.748;2023-03-04T08:54:35;27;27;
64114;PMS5003;62188;35.640;139.748;2023-03-04T08:57:00;30;30;
64114;PMS5003;62188;35.640;139.748;2023-03-04T08:59:26;31;31;
64114;PMS5003;62188;35.640;139.748;2023-03-04T09:01:51;29;29;
64114;PMS5003;62188;35.640;139.748;2023-03-04T09:04:17;30;26;
64114;PMS5003;62188;35.640;139.748;2023-03-04T09:06:42;35;34;
64114;PMS5003;62188;35.640;139.748;2023-03-04T09:09:07;34;33;
64114;PMS5003;62188;35.640;139.748;2023-03-04T09:11:32;26;26;
64114;PMS5003;62188;35.640;139.748;2023-03-04T09:13:58;34;32;
64114;PMS5003;62188;35.640;139.748;2023-03-04T09:16:23;34;33;
64114;PMS5003;62188;35.640;139.748;2023-03-04T09:18:48;31;30;
64114;PMS5003;62188;35.640;139.748;2023-03-04T09:21:13;34;31;
64114;PMS5003;62188;35.640;139.748;2023-03-04T09:23:39;32;31;
64114;PMS5003;62188;35.640;139.748;2023-03-04T09:28:29;29;29;
64114;PMS5003;62188;35.640;139.748;2023-03-04T09:30:54;30;27;
64114;PMS5003;62188;35.640;139.748;2023-03-04T09:33:19;28;27;
64114;PMS5003;62188;35.640;139.748;2023-03-04T09:35:44;31;31;
64114;PMS5003;62188;35.640;139.748;2023-03-04T09:38:10;22;21;
64114;PMS5003;62188;35.640;139.748;2023-03-04T09:40:38;24;22;
64114;PMS5003;62188;35.640;139.748;2023-03-04T09:43:02;17;16;
64114;PMS5003;62188;35.640;139.748;2023-03-04T09:45:28;12;12;
64114;PMS5003;62188;35.640;139.748;2023-03-04T09:47:52;12;12;
64114;PMS5003;62188;35.640;139.748;2023-03-04T09:50:17;11;10;
64114;PMS5003;62188;35.640;139.748;2023-03-04T09:52:47;11;11;
64114;PMS5003;62188;35.640;139.748;2023-03-04T09:55:13;10;9;
64114;PMS5003;62188;35.640;139.748;2023-03-04T10:00:05;12;10;
64114;PMS5003;62188;35.640;139.748;2023-03-04T10:02:28;7;7;
64114;PMS5003;62188;35.640;139.748;2023-03-04T10:04:51;9;8;
64114;PMS5003;62188;35.640;139.748;2023-03-04T10:07:18;7;6;
64114;PMS5003;62188;35.640;139.748;2023-03-04T10:09:44;11;11;
64114;PMS5003;62188;35.640;139.748;2023-03-04T10:12:10;9;9;
64114;PMS5003;62188;35.640;139.748;2023-03-04T10:14:35;11;11;
64114;PMS5003;62188;35.640;139.748;2023-03-04T10:17:02;14;13;
64114;PMS5003;62188;35.640;139.748;2023-03-04T10:19:29;13;13;
64114;PMS5003;62188;35.640;139.748;2023-03-04T10:21:50;13;13;
64114;PMS5003;62188;35.640;139.748;2023-03-04T10:24:17;16;16;
64114;PMS5003;62188;35.640;139.748;2023-03-04T10:26:41;19;18;
64114;PMS5003;62188;35.640;139.748;2023-03-04T10:29:07;17;17;
64114;PMS5003;62188;35.640;139.748;2023-03-04T10:31:33;14;13;
64114;PMS5003;62188;35.640;139.748;2023-03-04T10:33:57;13;12;
64114;PMS5003;62188;35.640;139.748;2023-03-04T10:36:29;9;9;
64114;PMS5003;62188;35.640;139.748;2023-03-04T10:38:51;9;9;
64114;PMS5003;62188;35.640;139.748;2023-03-04T10:41:15;13;13;
64114;PMS5003;62188;35.640;139.748;2023-03-04T10:43:39;11;11;
64114;PMS5003;62188;35.640;139.748;2023-03-04T10:46:05;13;12;
64114;PMS5003;62188;35.640;139.748;2023-03-04T10:48:31;9;8;
64114;PMS5003;62188;35.640;139.748;2023-03-04T10:53:24;13;11;
64114;PMS5003;62188;35.640;139.748;2023-03-04T10:55:47;9;8;
64114;PMS5003;62188;35.640;139.748;2023-03-04T10:58:14;9;9;
64114;PMS5003;62188;35.640;139.748;2023-03-04T11:00:39;11;10;
64114;PMS5003;62188;35.640;139.748;2023-03-04T11:05:31;9;9;
64114;PMS5003;62188;35.640;139.748;2023-03-04T11:07:58;10;9;
64114;PMS5003;62188;35.640;139.748;2023-03-04T11:10:23;13;13;
64114;PMS5003;62188;35.640;139.748;2023-03-04T11:12:48;8;8;
64114;PMS5003;62188;35.640;139.748;2023-03-04T11:15:17;11;9;
64114;PMS5003;62188;35.640;139.748;2023-03-04T11:17:41;13;12;
64114;PMS5003;62188;35.640;139.748;2023-03-04T11:20:06;10;9;
64114;PMS5003;62188;35.640;139.748;2023-03-04T11:22:30;11;10;
64114;PMS5003;62188;35.640;139.748;2023-03-04T11:24:57;10;9;
64114;PMS5003;62188;35.640;139.748;2023-03-04T11:27:22;11;9;
64114;PMS5003;62188;35.640;139.748;2023-03-04T11:29:47;9;9;
64114;PMS5003;62188;35.640;139.748;2023-03-04T11:32:13;10;9;
64114;PMS5003;62188;35.640;139.748;2023-03-04T11:34:44;9;8;
64114;PMS5003;62188;35.640;139.748;2023-03-04T11:37:05;11;10;
64114;PMS5003;62188;35.640;139.748;2023-03-04T11:39:30;10;9;
64114;PMS5003;62188;35.640;139.748;2023-03-04T11:41:56;10;10;
64114;PMS5003;62188;35.640;139.748;2023-03-04T11:44:20;8;8;
64114;PMS5003;62188;35.640;139.748;2023-03-04T11:46:51;12;11;
64114;PMS5003;62188;35.640;139.748;2023-03-04T11:51:37;11;11;
64114;PMS5003;62188;35.640;139.748;2023-03-04T11:54:09;12;11;
64114;PMS5003;62188;35.640;139.748;2023-03-04T11:56:30;11;10;
64114;PMS5003;62188;35.640;139.748;2023-03-04T12:01:21;10;9;
64114;PMS5003;62188;35.640;139.748;2023-03-04T12:03:52;10;10;
64114;PMS5003;62188;35.640;139.748;2023-03-04T12:06:11;12;11;
64114;PMS5003;62188;35.640;139.748;2023-03-04T12:08:39;12;12;
64114;PMS5003;62188;35.640;139.748;2023-03-04T12:11:02;12;12;
64114;PMS5003;62188;35.640;139.748;2023-03-04T12:13:32;13;12;
64114;PMS5003;62188;35.640;139.748;2023-03-04T12:15:55;12;11;
64114;PMS5003;62188;35.640;139.748;2023-03-04T12:18:22;10;10;
64114;PMS5003;62188;35.640;139.748;2023-03-04T12:20:48;11;11;
64114;PMS5003;62188;35.640;139.748;2023-03-04T12:23:16;12;12;
64114;PMS5003;62188;35.640;139.748;2023-03-04T12:25:37;10;10;
64114;PMS5003;62188;35.640;139.748;2023-03-04T12:28:07;11;9;
64114;PMS5003;62188;35.640;139.748;2023-03-04T12:32:54;11;11;
64114;PMS5003;62188;35.640;139.748;2023-03-04T12:35:22;12;12;
64114;PMS5003;62188;35.640;139.748;2023-03-04T12:37:53;13;12;
64114;PMS5003;62188;35.640;139.748;2023-03-04T12:42:36;11;10;
64114;PMS5003;62188;35.640;139.748;2023-03-04T12:45:02;11;10;
64114;PMS5003;62188;35.640;139.748;2023-03-04T12:47:29;13;13;
64114;PMS5003;62188;35.640;139.748;2023-03-04T12:49:57;14;12;
64114;PMS5003;62188;35.640;139.748;2023-03-04T12:52:20;11;11;
64114;PMS5003;62188;35.640;139.748;2023-03-04T12:54:44;12;11;
64114;PMS5003;62188;35.640;139.748;2023-03-04T12:57:10;10;9;
64114;PMS5003;62188;35.640;139.748;2023-03-04T12:59:35;11;11;
64114;PMS5003;62188;35.640;139.748;2023-03-04T13:02:01;15;11;
64114;PMS5003;62188;35.640;139.748;2023-03-04T13:04:26;13;12;
64114;PMS5003;62188;35.640;139.748;2023-03-04T13:06:54;11;11;
64114;PMS5003;62188;35.640;139.748;2023-03-04T13:09:18;11;11;
64114;PMS5003;62188;35.640;139.748;2023-03-04T13:11:48;10;10;
64114;PMS5003;62188;35.640;139.748;2023-03-04T13:14:21;14;11;
64114;PMS5003;62188;35.640;139.748;2023-03-04T13:16:34;12;11;
64114;PMS5003;62188;35.640;139.748;2023-03-04T13:18:59;10;10;
64114;PMS5003;62188;35.640;139.748;2023-03-04T13:21:25;12;12;
64114;PMS5003;62188;35.640;139.748;2023-03-04T13:23:51;13;12;
64114;PMS5003;62188;35.640;139.748;2023-03-04T13:26:17;13;12;
64114;PMS5003;62188;35.640;139.748;2023-03-04T13:28:42;9;9;
64114;PMS5003;62188;35.640;139.748;2023-03-04T13:31:11;12;12;
64114;PMS5003;62188;35.640;139.748;2023-03-04T13:33:44;11;11;
64114;PMS5003;62188;35.640;139.748;2023-03-04T13:35:59;16;13;
64114;PMS5003;62188;35.640;139.748;2023-03-04T13:38:31;12;11;
64114;PMS5003;62188;35.640;139.748;2023-03-04T13:43:25;9;9;
64114;PMS5003;62188;35.640;139.748;2023-03-04T13:45:41;13;12;
64114;PMS5003;62188;35.640;139.748;2023-03-04T13:48:19;12;12;
64114;PMS5003;62188;35.640;139.748;2023-03-04T13:50:33;12;12;
64114;PMS5003;62188;35.640;139.748;2023-03-04T13:53:01;13;10;
64114;PMS5003;62188;35.640;139.748;2023-03-04T13:55:32;12;12;
64114;PMS5003;62188;35.640;139.748;2023-03-04T13:57:50;12;11;
64114;PMS5003;62188;35.640;139.748;2023-03-04T14:00:15;11;10;
64114;PMS5003;62188;35.640;139.748;2023-03-04T14:02:41;13;13;
64114;PMS5003;62188;35.640;139.748;2023-03-04T14:05:10;16;13;
64114;PMS5003;62188;35.640;139.748;2023-03-04T14:07:33;12;12;
64114;PMS5003;62188;35.640;139.748;2023-03-04T14:09:59;13;12;
64114;PMS5003;62188;35.640;139.748;2023-03-04T14:12:24;10;10;
64114;PMS5003;62188;35.640;139.748;2023-03-04T14:14:50;12;12;
64114;PMS5003;62188;35.640;139.748;2023-03-04T14:17:16;11;11;
64114;PMS5003;62188;35.640;139.748;2023-03-04T14:19:43;12;11;
64114;PMS5003;62188;35.640;139.748;2023-03-04T14:24:32;15;14;
64114;PMS5003;62188;35.640;139.748;2023-03-04T14:29:24;14;13;
64114;PMS5003;62188;35.640;139.748;2023-03-04T14:31:49;15;14;
64114;PMS5003;62188;35.640;139.748;2023-03-04T14:34:16;12;12;
64114;PMS5003;62188;35.640;139.748;2023-03-04T14:36:42;14;13;
64114;PMS5003;62188;35.640;139.748;2023-03-04T14:39:05;12;12;
64114;PMS5003;62188;35.640;139.748;2023-03-04T14:41:32;15;14;
64114;PMS5003;62188;35.640;139.748;2023-03-04T14:43:59;15;14;
64114;PMS5003;62188;35.640;139.748;2023-03-04T14:46:22;12;11;
64114;PMS5003;62188;35.640;139.748;2023-03-04T14:48:48;13;13;
64114;PMS5003;62188;35.640;139.748;2023-03-04T14:53:51;11;10;
64114;PMS5003;62188;35.640;139.748;2023-03-04T14:56:06;14;13;
64114;PMS5003;62188;35.640;139.748;2023-03-04T14:58:31;13;12;
64114;PMS5003;62188;35.640;139.748;2023-03-04T15:01:04;14;14;
64114;PMS5003;62188;35.640;139.748;2023-03-04T15:03:22;13;13;
64114;PMS5003;62188;35.640;139.748;2023-03-04T15:05:47;13;13;
64114;PMS5003;62188;35.640;139.748;2023-03-04T15:08:18;15;13;
64114;PMS5003;62188;35.640;139.748;2023-03-04T15:10:38;14;13;
64114;PMS5003;62188;35.640;139.748;2023-03-04T15:13:04;13;13;
64114;PMS5003;62188;35.640;139.748;2023-03-04T15:15:34;13;13;
64114;PMS5003;62188;35.640;139.748;2023-03-04T15:17:58;14;13;
64114;PMS5003;62188;35.640;139.748;2023-03-04T15:20:24;15;15;
64114;PMS5003;62188;35.640;139.748;2023-03-04T15:25:12;16;15;
64114;PMS5003;62188;35.640;139.748;2023-03-04T15:27:37;14;14;
64114;PMS5003;62188;35.640;139.748;2023-03-04T15:30:05;17;16;
64114;PMS5003;62188;35.640;139.748;2023-03-04T15:32:29;19;17;
64114;PMS5003;62188;35.640;139.748;2023-03-04T15:34:53;18;16;
64114;PMS5003;62188;35.640;139.748;2023-03-04T15:37:20;16;15;
64114;PMS5003;62188;35.640;139.748;2023-03-04T15:39:45;15;14;
64114;PMS5003;62188;35.640;139.748;2023-03-04T15:42:11;13;12;
64114;PMS5003;62188;35.640;139.748;2023-03-04T15:44:36;17;15;
64114;PMS5003;62188;35.640;139.748;2023-03-04T15:47:02;13;12;
64114;PMS5003;62188;35.640;139.748;2023-03-04T15:49:28;14;14;
64114;PMS5003;62188;35.640;139.748;2023-03-04T15:51:52;18;17;
64114;PMS5003;62188;35.640;139.748;2023-03-04T15:54:18;19;18;
64114;PMS5003;62188;35.640;139.748;2023-03-04T15:56:44;14;13;
64114;PMS5003;62188;35.640;139.748;2023-03-04T15:59:10;16;16;
64114;PMS5003;62188;35.640;139.748;2023-03-04T16:01:35;16;16;
64114;PMS5003;62188;35.640;139.748;2023-03-04T16:04:00;17;17;
64114;PMS5003;62188;35.640;139.748;2023-03-04T16:06:26;17;17;